createdAt,value
2023-05-28T00:00:56.370Z,95697
2023-05-28T00:02:05.024Z,95695
2023-05-28T00:03:13.803Z,95694
2023-05-28T00:04:23.338Z,95690
2023-05-28T00:05:30.997Z,95686
2023-05-28T00:06:39.700Z,95691
2023-05-28T00:07:49.383Z,95690
2023-05-28T00:08:57.053Z,95686
2023-05-28T00:10:06.758Z,95683
2023-05-28T00:11:16.389Z,95682
2023-05-28T00:12:25.078Z,95683
2023-05-28T00:13:34.774Z,95681
2023-05-28T00:14:42.465Z,95681
2023-05-28T00:15:52.309Z,95685
2023-05-28T00:17:01.794Z,95685
2023-05-28T00:18:09.499Z,95683
2023-05-28T00:19:19.156Z,95677
2023-05-28T00:20:27.898Z,95676
2023-05-28T00:21:36.473Z,95682
2023-05-28T00:22:46.131Z,95674
2023-05-28T00:23:55.812Z,95676
2023-05-28T00:25:04.466Z,95677
2023-05-28T00:26:14.200Z,95681
2023-05-28T00:27:22.820Z,95674
2023-05-28T00:28:32.528Z,95675
2023-05-28T00:29:42.183Z,95680
2023-05-28T00:30:50.880Z,95674
2023-05-28T00:32:00.557Z,95680
2023-05-28T00:33:08.258Z,95676
2023-05-28T00:34:17.078Z,95679
2023-05-28T00:35:26.754Z,95674
2023-05-28T00:36:34.414Z,95675
2023-05-28T00:37:43.076Z,95674
2023-05-28T00:38:52.744Z,95677
2023-05-28T00:40:01.421Z,95678
2023-05-28T00:41:11.135Z,95677
2023-05-28T00:42:19.817Z,95676
2023-05-28T00:43:29.483Z,95680
2023-05-28T00:44:38.141Z,95675
2023-05-28T00:45:46.901Z,95678
2023-05-28T00:46:55.506Z,95678
2023-05-28T00:48:05.201Z,95673
2023-05-28T00:49:13.805Z,95673
2023-05-28T00:50:23.466Z,95671
2023-05-28T00:51:31.114Z,95670
2023-05-28T00:52:39.770Z,95672
2023-05-28T00:53:48.416Z,95673
2023-05-28T00:54:57.072Z,95672
2023-05-28T00:56:05.752Z,95671
2023-05-28T00:57:14.412Z,95673
2023-05-28T00:58:24.091Z,95675
2023-05-28T00:59:33.725Z,95679
2023-05-28T01:00:43.420Z,95674
2023-05-28T01:01:53.074Z,95676
2023-05-28T01:03:01.922Z,95675
2023-05-28T01:04:10.532Z,95674
2023-05-28T01:05:20.105Z,95679
2023-05-28T01:06:28.750Z,95676
2023-05-28T01:07:37.435Z,95676
2023-05-28T01:08:46.083Z,95679
2023-05-28T01:09:54.744Z,95678
2023-05-28T01:11:04.445Z,95675
2023-05-28T01:12:14.135Z,95678
2023-05-28T01:13:22.805Z,95674
2023-05-28T01:14:32.508Z,95673
2023-05-28T01:15:42.181Z,95679
2023-05-28T01:16:50.873Z,95681
2023-05-28T01:18:00.619Z,95674
2023-05-28T01:19:10.509Z,95672
2023-05-28T01:20:19.957Z,95676
2023-05-28T01:21:28.649Z,95677
2023-05-28T01:22:37.273Z,95673
2023-05-28T01:23:47.029Z,95676
2023-05-28T01:24:55.707Z,95669
2023-05-28T01:26:04.354Z,95675
2023-05-28T01:27:13.028Z,95668
2023-05-28T01:28:21.688Z,95670
2023-05-28T01:29:31.396Z,95669
2023-05-28T01:30:40.077Z,95667
2023-05-28T01:31:48.706Z,95666
2023-05-28T01:32:58.378Z,95663
2023-05-28T01:34:06.022Z,95663
2023-05-28T01:35:14.692Z,95663
2023-05-28T01:36:24.344Z,95663
2023-05-28T01:37:33.993Z,95660
2023-05-28T01:38:43.648Z,95661
2023-05-28T01:39:52.393Z,95655
2023-05-28T01:41:01.038Z,95658
2023-05-28T01:42:10.703Z,95652
2023-05-28T01:43:21.398Z,95659
2023-05-28T01:44:30.060Z,95657
2023-05-28T01:45:38.752Z,95655
2023-05-28T01:46:48.521Z,95654
2023-05-28T01:47:58.090Z,95658
2023-05-28T01:49:06.730Z,95658
2023-05-28T01:50:15.400Z,95655
2023-05-28T01:51:25.137Z,95655
2023-05-28T01:52:33.824Z,95656
2023-05-28T01:53:42.492Z,95651
2023-05-28T01:54:51.189Z,95651
2023-05-28T01:55:59.843Z,95658
2023-05-28T01:57:09.522Z,95654
2023-05-28T01:58:17.201Z,95654
2023-05-28T01:59:25.896Z,95658
2023-05-28T02:00:35.548Z,95653
2023-05-28T02:01:43.209Z,95650
2023-05-28T02:02:53.040Z,95650
2023-05-28T02:04:02.609Z,95654
2023-05-28T02:05:11.311Z,95651
2023-05-28T02:06:20.961Z,95653
2023-05-28T02:07:28.639Z,95649
2023-05-28T02:08:37.291Z,95651
2023-05-28T02:09:46.976Z,95652
2023-05-28T02:10:55.660Z,95648
2023-05-28T02:12:04.489Z,95645
2023-05-28T02:13:14.057Z,95645
2023-05-28T02:14:23.744Z,95648
2023-05-28T02:15:33.454Z,95644
2023-05-28T02:16:43.146Z,95643
2023-05-28T02:17:52.796Z,95644
2023-05-28T02:19:02.472Z,95637
2023-05-28T02:20:12.140Z,95636
2023-05-28T02:21:20.805Z,95636
2023-05-28T02:22:28.457Z,95638
2023-05-28T02:23:38.161Z,95635
2023-05-28T02:24:47.841Z,95634
2023-05-28T02:25:55.650Z,95634
2023-05-28T02:27:04.214Z,95634
2023-05-28T02:28:13.876Z,95634
2023-05-28T02:29:21.571Z,95636
2023-05-28T02:30:30.228Z,95635
2023-05-28T02:31:38.924Z,95637
2023-05-28T02:32:47.616Z,95637
2023-05-28T02:33:57.216Z,95638
2023-05-28T02:35:04.943Z,95639
2023-05-28T02:36:14.613Z,95637
2023-05-28T02:37:24.292Z,95639
2023-05-28T02:38:31.945Z,95637
2023-05-28T02:39:40.599Z,95641
2023-05-28T02:40:49.287Z,95641
2023-05-28T02:41:57.978Z,95641
2023-05-28T02:43:07.648Z,95640
2023-05-28T02:44:16.345Z,95641
2023-05-28T02:45:25.042Z,95639
2023-05-28T02:46:34.856Z,95639
2023-05-28T02:47:43.433Z,95638
2023-05-28T02:48:52.069Z,95636
2023-05-28T02:50:00.732Z,95643
2023-05-28T02:51:09.439Z,95647
2023-05-28T02:52:19.091Z,95645
2023-05-28T02:53:27.728Z,95646
2023-05-28T02:54:37.429Z,95647
2023-05-28T02:55:46.106Z,95645
2023-05-28T02:56:54.795Z,95652
2023-05-28T02:58:04.438Z,95647
2023-05-28T02:59:13.311Z,95649
2023-05-28T03:00:21.944Z,95644
2023-05-28T03:01:30.668Z,95649
2023-05-28T03:02:40.299Z,95644
2023-05-28T03:03:50.040Z,95651
2023-05-28T03:04:57.657Z,95655
2023-05-28T03:06:07.309Z,95654
2023-05-28T03:07:17.032Z,95655
2023-05-28T03:08:25.664Z,95661
2023-05-28T03:09:34.357Z,95660
2023-05-28T03:10:44.076Z,95660
2023-05-28T03:11:52.804Z,95657
2023-05-28T03:13:03.565Z,95653
2023-05-28T03:14:12.114Z,95655
2023-05-28T03:15:20.776Z,95658
2023-05-28T03:16:30.485Z,95658
2023-05-28T03:17:39.143Z,95660
2023-05-28T03:18:47.744Z,95660
2023-05-28T03:19:56.401Z,95668
2023-05-28T03:21:06.051Z,95664
2023-05-28T03:22:15.726Z,95670
2023-05-28T03:23:24.445Z,95675
2023-05-28T03:24:33.035Z,95673
2023-05-28T03:25:42.688Z,95673
2023-05-28T03:26:51.346Z,95668
2023-05-28T03:28:01.013Z,95670
2023-05-28T03:29:09.742Z,95667
2023-05-28T03:30:18.430Z,95664
2023-05-28T03:31:29.126Z,95662
2023-05-28T03:32:37.774Z,95655
2023-05-28T03:33:47.442Z,95657
2023-05-28T03:34:57.104Z,95657
2023-05-28T03:36:05.767Z,95656
2023-05-28T03:37:14.431Z,95660
2023-05-28T03:38:24.109Z,95657
2023-05-28T03:39:33.808Z,95658
2023-05-28T03:40:43.438Z,95658
2023-05-28T03:41:51.213Z,95663
2023-05-28T03:42:59.901Z,95663
2023-05-28T03:44:09.564Z,95666
2023-05-28T03:45:17.235Z,95665
2023-05-28T03:46:25.989Z,95667
2023-05-28T03:47:34.604Z,95663
2023-05-28T03:48:43.196Z,95666
2023-05-28T03:49:52.845Z,95663
2023-05-28T03:51:01.560Z,95664
2023-05-28T03:52:11.248Z,95663
2023-05-28T03:53:20.909Z,95663
2023-05-28T03:54:29.561Z,95660
2023-05-28T03:55:39.222Z,95659
2023-05-28T03:56:48.850Z,95663
2023-05-28T03:57:57.573Z,95658
2023-05-28T03:59:07.215Z,95658
2023-05-28T04:00:15.856Z,95663
2023-05-28T04:01:24.537Z,95660
2023-05-28T04:02:34.245Z,95657
2023-05-28T04:03:43.013Z,95664
2023-05-28T04:04:51.630Z,95665
2023-05-28T04:06:01.265Z,95667
2023-05-28T04:07:09.948Z,95660
2023-05-28T04:08:19.601Z,95663
2023-05-28T04:09:27.265Z,95661
2023-05-28T04:10:35.957Z,95664
2023-05-28T04:11:45.648Z,95664
2023-05-28T04:12:54.316Z,95668
2023-05-28T04:14:02.972Z,95668
2023-05-28T04:15:12.707Z,95669
2023-05-28T04:16:21.405Z,95667
2023-05-28T04:17:31.050Z,95666
2023-05-28T04:18:39.792Z,95667
2023-05-28T04:19:48.424Z,95669
2023-05-28T04:20:58.081Z,95671
2023-05-28T04:22:06.753Z,95668
2023-05-28T04:23:15.411Z,95673
2023-05-28T04:24:25.088Z,95670
2023-05-28T04:25:34.770Z,95670
2023-05-28T04:26:44.428Z,95670
2023-05-28T04:27:53.105Z,95670
2023-05-28T04:29:02.720Z,95674
2023-05-28T04:30:12.414Z,95671
2023-05-28T04:31:21.056Z,95672
2023-05-28T04:32:29.762Z,95670
2023-05-28T04:33:38.368Z,95673
2023-05-28T04:34:47.050Z,95671
2023-05-28T04:35:56.700Z,95671
2023-05-28T04:37:04.355Z,95673
2023-05-28T04:38:14.040Z,95676
2023-05-28T04:39:23.673Z,95674
2023-05-28T04:40:32.350Z,95676
2023-05-28T04:41:41.011Z,95680
2023-05-28T04:42:50.673Z,95678
2023-05-28T04:43:59.313Z,95681
2023-05-28T04:45:08.992Z,95679
2023-05-28T04:46:17.677Z,95679
2023-05-28T04:47:27.356Z,95680
2023-05-28T04:48:37.008Z,95680
2023-05-28T04:49:45.657Z,95682
2023-05-28T04:50:55.344Z,95681
2023-05-28T04:52:03.986Z,95682
2023-05-28T04:53:13.655Z,95682
2023-05-28T04:54:22.304Z,95685
2023-05-28T04:55:31.978Z,95685
2023-05-28T04:56:41.680Z,95687
2023-05-28T04:57:50.349Z,95682
2023-05-28T04:59:00.040Z,95681
2023-05-28T05:00:09.723Z,95685
2023-05-28T05:01:18.521Z,95685
2023-05-28T05:02:27.176Z,95688
2023-05-28T05:03:35.800Z,95689
2023-05-28T05:04:44.432Z,95688
2023-05-28T05:05:54.172Z,95686
2023-05-28T05:07:03.775Z,95683
2023-05-28T05:08:11.447Z,95684
2023-05-28T05:09:21.126Z,95682
2023-05-28T05:10:28.770Z,95686
2023-05-28T05:11:37.473Z,95687
2023-05-28T05:12:47.125Z,95689
2023-05-28T05:13:55.808Z,95694
2023-05-28T05:15:05.466Z,95695
2023-05-28T05:16:14.227Z,95692
2023-05-28T05:17:22.763Z,95697
2023-05-28T05:18:31.429Z,95694
2023-05-28T05:19:40.126Z,95693
2023-05-28T05:20:49.889Z,95691
2023-05-28T05:21:58.441Z,95691
2023-05-28T05:23:07.185Z,95689
2023-05-28T05:24:16.828Z,95690
2023-05-28T05:25:25.485Z,95686
2023-05-28T05:26:35.153Z,95694
2023-05-28T05:27:44.809Z,95691
2023-05-28T05:28:53.523Z,95691
2023-05-28T05:30:02.174Z,95692
2023-05-28T05:31:10.928Z,95690
2023-05-28T05:32:19.638Z,95690
2023-05-28T05:33:29.283Z,95690
2023-05-28T05:34:36.948Z,95690
2023-05-28T05:35:45.612Z,95693
2023-05-28T05:36:55.252Z,95691
2023-05-28T05:38:02.924Z,95691
2023-05-28T05:39:12.613Z,95690
2023-05-28T05:40:21.291Z,95687
2023-05-28T05:41:29.953Z,95692
2023-05-28T05:42:39.663Z,95698
2023-05-28T05:43:47.306Z,95693
2023-05-28T05:44:55.975Z,95695
2023-05-28T05:46:05.631Z,95690
2023-05-28T05:47:13.303Z,95694
2023-05-28T05:48:22.973Z,95687
2023-05-28T05:49:32.633Z,95685
2023-05-28T05:50:42.268Z,95686
2023-05-28T05:51:51.966Z,95687
2023-05-28T05:52:59.923Z,95684
2023-05-28T05:54:08.571Z,95685
2023-05-28T05:55:18.232Z,95686
2023-05-28T05:56:26.922Z,95688
2023-05-28T05:57:35.556Z,95688
2023-05-28T05:58:43.205Z,95693
2023-05-28T05:59:51.878Z,95694
2023-05-28T06:01:01.520Z,95691
2023-05-28T06:02:09.246Z,95690
2023-05-28T06:03:19.017Z,95687
2023-05-28T06:04:28.676Z,95688
2023-05-28T06:05:38.299Z,95689
2023-05-28T06:06:47.971Z,95685
2023-05-28T06:07:57.749Z,95686
2023-05-28T06:09:06.441Z,95682
2023-05-28T06:10:16.100Z,95680
2023-05-28T06:11:25.837Z,95682
2023-05-28T06:12:34.495Z,95685
2023-05-28T06:13:43.165Z,95684
2023-05-28T06:14:51.828Z,95683
2023-05-28T06:16:00.514Z,95688
2023-05-28T06:17:09.174Z,95687
2023-05-28T06:18:17.811Z,95687
2023-05-28T06:19:27.491Z,95690
2023-05-28T06:20:35.319Z,95690
2023-05-28T06:21:43.804Z,95685
2023-05-28T06:22:54.489Z,95687
2023-05-28T06:24:02.662Z,95689
2023-05-28T06:25:11.344Z,95689
2023-05-28T06:26:21.067Z,95686
2023-05-28T06:27:29.753Z,95697
2023-05-28T06:28:39.469Z,95689
2023-05-28T06:29:47.130Z,95691
2023-05-28T06:30:55.836Z,95691
2023-05-28T06:32:05.461Z,95690
2023-05-28T06:33:14.123Z,95691
2023-05-28T06:34:22.803Z,95691
2023-05-28T06:35:31.454Z,95693
2023-05-28T06:36:40.148Z,95692
2023-05-28T06:37:49.784Z,95694
2023-05-28T06:38:57.476Z,95693
2023-05-28T06:40:06.143Z,95694
2023-05-28T06:41:15.852Z,95693
2023-05-28T06:42:23.517Z,95699
2023-05-28T06:43:32.220Z,95693
2023-05-28T06:44:40.917Z,95697
2023-05-28T06:45:50.639Z,95700
2023-05-28T06:47:00.352Z,95700
2023-05-28T06:48:07.970Z,95700
2023-05-28T06:49:17.567Z,95698
2023-05-28T06:50:27.347Z,95705
2023-05-28T06:51:36.961Z,95705
2023-05-28T06:52:46.649Z,95701
2023-05-28T06:53:55.275Z,95703
2023-05-28T06:55:03.926Z,95700
2023-05-28T06:56:12.627Z,95699
2023-05-28T06:57:21.262Z,95702
2023-05-28T06:58:30.921Z,95707
2023-05-28T06:59:38.584Z,95705
2023-05-28T07:00:47.334Z,95701
2023-05-28T07:01:56.005Z,95697
2023-05-28T07:03:04.678Z,95699
2023-05-28T07:04:13.387Z,95700
2023-05-28T07:05:23.058Z,95702
2023-05-28T07:06:31.668Z,95702
2023-05-28T07:07:41.360Z,95701
2023-05-28T07:08:50.143Z,95704
2023-05-28T07:09:58.770Z,95705
2023-05-28T07:11:08.464Z,95704
2023-05-28T07:12:17.191Z,95701
2023-05-28T07:13:26.847Z,95703
2023-05-28T07:14:35.541Z,95704
2023-05-28T07:15:44.224Z,95700
2023-05-28T07:16:53.938Z,95703
2023-05-28T07:18:01.577Z,95702
2023-05-28T07:19:11.261Z,95701
2023-05-28T07:20:20.972Z,95696
2023-05-28T07:21:30.597Z,95699
2023-05-28T07:22:39.288Z,95700
2023-05-28T07:23:48.070Z,95697
2023-05-28T07:24:57.873Z,95700
2023-05-28T07:26:07.385Z,95704
2023-05-28T07:27:17.045Z,95696
2023-05-28T07:28:25.695Z,95693
2023-05-28T07:29:35.381Z,95694
2023-05-28T07:30:43.030Z,95694
2023-05-28T07:31:51.794Z,95689
2023-05-28T07:33:00.485Z,95689
2023-05-28T07:34:09.135Z,95688
2023-05-28T07:35:18.857Z,95686
2023-05-28T07:36:26.553Z,95688
2023-05-28T07:37:35.205Z,95691
2023-05-28T07:38:44.902Z,95691
2023-05-28T07:39:53.579Z,95694
2023-05-28T07:41:03.288Z,95692
2023-05-28T07:42:12.928Z,95692
2023-05-28T07:43:21.739Z,95693
2023-05-28T07:44:31.370Z,95699
2023-05-28T07:45:41.069Z,95695
2023-05-28T07:46:49.686Z,95690
2023-05-28T07:47:59.417Z,95692
2023-05-28T07:49:08.177Z,95693
2023-05-28T07:50:16.933Z,95694
2023-05-28T07:51:25.579Z,95694
2023-05-28T07:52:34.295Z,95695
2023-05-28T07:53:43.959Z,95692
2023-05-28T07:54:52.624Z,95692
2023-05-28T07:56:01.256Z,95695
2023-05-28T07:57:11.039Z,95691
2023-05-28T07:58:19.691Z,95689
2023-05-28T07:59:29.389Z,95691
2023-05-28T08:00:39.093Z,95686
2023-05-28T08:01:48.774Z,95686
2023-05-28T08:02:58.481Z,95685
2023-05-28T08:04:06.275Z,95685
2023-05-28T08:05:14.830Z,95686
2023-05-28T08:06:23.477Z,95687
2023-05-28T08:07:31.127Z,95683
2023-05-28T08:08:39.874Z,95683
2023-05-28T08:09:48.523Z,95676
2023-05-28T08:10:58.192Z,95683
2023-05-28T08:12:07.842Z,95686
2023-05-28T08:13:17.545Z,95682
2023-05-28T08:14:27.193Z,95686
2023-05-28T08:15:36.862Z,95684
2023-05-28T08:16:44.586Z,95680
2023-05-28T08:17:54.197Z,95680
2023-05-28T08:19:02.839Z,95683
2023-05-28T08:20:12.561Z,95684
2023-05-28T08:21:21.184Z,95683
2023-05-28T08:22:29.896Z,95682
2023-05-28T08:23:38.498Z,95685
2023-05-28T08:24:48.135Z,95677
2023-05-28T08:25:57.842Z,95680
2023-05-28T08:27:07.487Z,95682
2023-05-28T08:28:16.152Z,95680
2023-05-28T08:29:24.874Z,95677
2023-05-28T08:30:34.884Z,95678
2023-05-28T08:31:43.573Z,95679
2023-05-28T08:32:53.222Z,95674
2023-05-28T08:34:02.881Z,95678
2023-05-28T08:35:12.587Z,95674
2023-05-28T08:36:22.280Z,95674
2023-05-28T08:37:31.981Z,95670
2023-05-28T08:38:41.622Z,95673
2023-05-28T08:39:51.283Z,95672
2023-05-28T08:40:58.986Z,95676
2023-05-28T08:42:08.608Z,95677
2023-05-28T08:43:18.289Z,95674
2023-05-28T08:44:28.001Z,95669
2023-05-28T08:45:36.621Z,95672
2023-05-28T08:46:46.393Z,95672
2023-05-28T08:47:55.027Z,95677
2023-05-28T08:49:05.633Z,95668
2023-05-28T08:50:14.294Z,95664
2023-05-28T08:51:23.026Z,95668
2023-05-28T08:52:32.659Z,95667
2023-05-28T08:53:41.359Z,95668
2023-05-28T08:54:51.002Z,95665
2023-05-28T08:55:59.658Z,95666
2023-05-28T08:57:08.320Z,95668
2023-05-28T08:58:16.975Z,95669
2023-05-28T08:59:26.662Z,95671
2023-05-28T09:00:36.680Z,95663
2023-05-28T09:01:46.279Z,95668
2023-05-28T09:02:55.172Z,95668
2023-05-28T09:04:04.748Z,95664
2023-05-28T09:05:13.369Z,95663
2023-05-28T09:06:21.128Z,95664
2023-05-28T09:07:29.796Z,95663
2023-05-28T09:08:39.513Z,95662
2023-05-28T09:09:49.464Z,95663
2023-05-28T09:10:57.872Z,95663
2023-05-28T09:12:07.558Z,95663
2023-05-28T09:13:16.209Z,95666
2023-05-28T09:14:24.860Z,95663
2023-05-28T09:15:34.566Z,95666
2023-05-28T09:16:43.266Z,95666
2023-05-28T09:17:52.930Z,95665
2023-05-28T09:19:02.539Z,95667
2023-05-28T09:20:10.312Z,95664
2023-05-28T09:21:18.885Z,95660
2023-05-28T09:22:28.581Z,95660
2023-05-28T09:23:37.240Z,95660
2023-05-28T09:24:45.941Z,95664
2023-05-28T09:25:54.695Z,95664
2023-05-28T09:27:04.240Z,95651
2023-05-28T09:28:13.883Z,95664
2023-05-28T09:29:23.190Z,95659
2023-05-28T09:30:31.871Z,95657
2023-05-28T09:31:41.633Z,95655
2023-05-28T09:32:49.345Z,95651
2023-05-28T09:33:57.998Z,95655
2023-05-28T09:35:06.679Z,95659
2023-05-28T09:36:15.407Z,95658
2023-05-28T09:37:25.068Z,95657
2023-05-28T09:38:33.731Z,95655
2023-05-28T09:39:42.468Z,95654
2023-05-28T09:40:52.178Z,95653
2023-05-28T09:42:00.823Z,95656
2023-05-28T09:43:09.479Z,95658
2023-05-28T09:44:19.134Z,95653
2023-05-28T09:45:27.793Z,95645
2023-05-28T09:46:37.487Z,95646
2023-05-28T09:47:46.255Z,95653
2023-05-28T09:48:54.808Z,95652
2023-05-28T09:50:04.673Z,95650
2023-05-28T09:51:14.408Z,95652
2023-05-28T09:52:23.090Z,95648
2023-05-28T09:53:32.286Z,95650
2023-05-28T09:54:40.990Z,95650
2023-05-28T09:55:50.677Z,95650
2023-05-28T09:56:58.416Z,95648
2023-05-28T09:58:08.141Z,95649
2023-05-28T09:59:16.850Z,95648
2023-05-28T10:00:25.671Z,95645
2023-05-28T10:01:35.408Z,95641
2023-05-28T10:02:44.043Z,95644
2023-05-28T10:03:51.717Z,95651
2023-05-28T10:05:01.373Z,95651
2023-05-28T10:06:11.072Z,95648
2023-05-28T10:07:19.834Z,95648
2023-05-28T10:08:29.498Z,95651
2023-05-28T10:09:37.181Z,95654
2023-05-28T10:10:45.862Z,95653
2023-05-28T10:11:55.519Z,95652
2023-05-28T10:13:03.236Z,95650
2023-05-28T10:14:12.900Z,95651
2023-05-28T10:15:20.742Z,95651
2023-05-28T10:16:30.471Z,95653
2023-05-28T10:17:40.058Z,95650
2023-05-28T10:18:48.720Z,95650
2023-05-28T10:19:57.397Z,95651
2023-05-28T10:21:08.104Z,95656
2023-05-28T10:22:16.778Z,95648
2023-05-28T10:23:26.432Z,95651
2023-05-28T10:24:35.080Z,95645
2023-05-28T10:25:44.191Z,95650
2023-05-28T10:26:53.842Z,95649
2023-05-28T10:28:02.484Z,95652
2023-05-28T10:29:11.176Z,95650
2023-05-28T10:30:19.836Z,95647
2023-05-28T10:31:28.514Z,95650
2023-05-28T10:32:38.213Z,95649
2023-05-28T10:33:46.910Z,95644
2023-05-28T10:34:56.522Z,95648
2023-05-28T10:36:06.252Z,95645
2023-05-28T10:37:13.911Z,95646
2023-05-28T10:38:22.666Z,95642
2023-05-28T10:39:31.341Z,95638
2023-05-28T10:40:40.020Z,95643
2023-05-28T10:41:49.668Z,95627
2023-05-28T10:42:57.426Z,95635
2023-05-28T10:44:06.131Z,95626
2023-05-28T10:45:15.782Z,95624
2023-05-28T10:46:22.460Z,95619
2023-05-28T10:47:32.148Z,95625
2023-05-28T10:48:40.786Z,95634
2023-05-28T10:49:49.486Z,95631
2023-05-28T10:50:58.113Z,95626
2023-05-28T10:52:06.756Z,95628
2023-05-28T10:53:16.430Z,95630
2023-05-28T10:54:26.089Z,95635
2023-05-28T10:55:35.787Z,95635
2023-05-28T10:56:45.449Z,95630
2023-05-28T10:57:53.110Z,95630
2023-05-28T10:59:00.895Z,95626
2023-05-28T11:00:09.612Z,95627
2023-05-28T11:01:18.300Z,95621
2023-05-28T11:02:28.103Z,95620
2023-05-28T11:03:36.702Z,95626
2023-05-28T11:04:46.342Z,95627
2023-05-28T11:05:55.984Z,95626
2023-05-28T11:07:04.658Z,95625
2023-05-28T11:08:14.340Z,95620
2023-05-28T11:09:23.051Z,95621
2023-05-28T11:10:32.522Z,95629
2023-05-28T11:11:41.463Z,95626
2023-05-28T11:12:51.125Z,95622
2023-05-28T11:14:00.789Z,95623
2023-05-28T11:15:10.449Z,95624
2023-05-28T11:16:18.375Z,95616
2023-05-28T11:17:26.867Z,95618
2023-05-28T11:18:36.469Z,95616
2023-05-28T11:19:45.171Z,95620
2023-05-28T11:20:54.876Z,95616
2023-05-28T11:22:03.523Z,95616
2023-05-28T11:23:12.203Z,95619
2023-05-28T11:24:22.861Z,95621
2023-05-28T11:25:31.542Z,95620
2023-05-28T11:26:41.193Z,95624
2023-05-28T11:27:49.860Z,95622
2023-05-28T11:28:58.553Z,95625
2023-05-28T11:30:09.312Z,95623
2023-05-28T11:31:18.011Z,95621
2023-05-28T11:32:27.698Z,95623
2023-05-28T11:33:37.431Z,95621
2023-05-28T11:34:46.166Z,95621
2023-05-28T11:35:55.821Z,95625
2023-05-28T11:37:04.489Z,95621
2023-05-28T11:38:13.136Z,95617
2023-05-28T11:39:22.855Z,95618
2023-05-28T11:40:31.677Z,95614
2023-05-28T11:41:40.216Z,95616
2023-05-28T11:42:48.917Z,95619
2023-05-28T11:43:58.566Z,95616
2023-05-28T11:45:07.225Z,95610
2023-05-28T11:46:16.945Z,95610
2023-05-28T11:47:25.670Z,95608
2023-05-28T11:48:35.316Z,95611
2023-05-28T11:49:43.018Z,95613
2023-05-28T11:50:53.010Z,95612
2023-05-28T11:52:02.425Z,95609
2023-05-28T11:53:11.153Z,95600
2023-05-28T11:54:19.824Z,95598
2023-05-28T11:55:28.469Z,95597
2023-05-28T11:56:37.149Z,95596
2023-05-28T11:57:46.833Z,95597
2023-05-28T11:58:56.485Z,95591
2023-05-28T12:00:05.142Z,95594
2023-05-28T12:01:14.826Z,95598
2023-05-28T12:02:23.521Z,95588
2023-05-28T12:03:32.232Z,95588
2023-05-28T12:04:40.816Z,95583
2023-05-28T12:05:49.514Z,95592
2023-05-28T12:06:59.363Z,95592
2023-05-28T12:08:08.922Z,95592
2023-05-28T12:09:17.557Z,95593
2023-05-28T12:10:27.212Z,95599
2023-05-28T12:11:35.896Z,95600
2023-05-28T12:12:44.572Z,95600
2023-05-28T12:13:54.369Z,95595
2023-05-28T12:15:04.025Z,95585
2023-05-28T12:16:13.711Z,95588
2023-05-28T12:17:21.596Z,95597
2023-05-28T12:18:30.245Z,95593
2023-05-28T12:19:39.892Z,95594
2023-05-28T12:20:48.571Z,95588
2023-05-28T12:21:58.258Z,95593
2023-05-28T12:23:06.996Z,95591
2023-05-28T12:24:16.700Z,95589
2023-05-28T12:25:26.281Z,95592
2023-05-28T12:26:35.030Z,95594
2023-05-28T12:27:44.669Z,95592
2023-05-28T12:28:54.367Z,95592
2023-05-28T12:30:02.073Z,95585
2023-05-28T12:31:11.750Z,95588
2023-05-28T12:32:21.451Z,95586
2023-05-28T12:33:31.046Z,95584
2023-05-28T12:34:40.730Z,95587
2023-05-28T12:35:48.477Z,95580
2023-05-28T12:36:57.115Z,95587
2023-05-28T12:38:06.790Z,95580
2023-05-28T12:39:14.445Z,95582
2023-05-28T12:40:23.118Z,95581
2023-05-28T12:41:31.827Z,95582
2023-05-28T12:42:40.481Z,95582
2023-05-28T12:43:50.135Z,95586
2023-05-28T12:44:58.778Z,95585
2023-05-28T12:46:08.513Z,95576
2023-05-28T12:47:17.135Z,95579
2023-05-28T12:48:26.854Z,95578
2023-05-28T12:49:35.573Z,95571
2023-05-28T12:50:45.225Z,95574
2023-05-28T12:51:53.870Z,95574
2023-05-28T12:53:02.757Z,95578
2023-05-28T12:54:12.407Z,95578
2023-05-28T12:55:22.101Z,95574
2023-05-28T12:56:30.728Z,95576
2023-05-28T12:57:39.371Z,95574
2023-05-28T12:58:49.049Z,95570
2023-05-28T12:59:57.712Z,95570
2023-05-28T13:01:06.423Z,95565
2023-05-28T13:02:14.169Z,95572
2023-05-28T13:03:22.946Z,95571
2023-05-28T13:04:32.634Z,95575
2023-05-28T13:05:40.475Z,95572
2023-05-28T13:06:49.146Z,95573
2023-05-28T13:07:58.810Z,95574
2023-05-28T13:09:07.517Z,95564
2023-05-28T13:10:16.197Z,95568
2023-05-28T13:11:24.825Z,95564
2023-05-28T13:12:33.506Z,95567
2023-05-28T13:13:43.164Z,95576
2023-05-28T13:14:51.796Z,95569
2023-05-28T13:16:00.575Z,95570
2023-05-28T13:17:09.156Z,95563
2023-05-28T13:18:18.816Z,95564
2023-05-28T13:19:27.435Z,95562
2023-05-28T13:20:36.113Z,95560
2023-05-28T13:21:44.762Z,95570
2023-05-28T13:22:54.410Z,95562
2023-05-28T13:24:02.104Z,95558
2023-05-28T13:25:10.742Z,95552
2023-05-28T13:26:20.390Z,95555
2023-05-28T13:27:27.040Z,95558
2023-05-28T13:28:36.674Z,95556
2023-05-28T13:29:44.388Z,95560
2023-05-28T13:30:53.096Z,95556
2023-05-28T13:32:02.750Z,95552
2023-05-28T13:33:11.463Z,95558
2023-05-28T13:34:21.084Z,95557
2023-05-28T13:35:30.689Z,95561
2023-05-28T13:36:39.349Z,95560
2023-05-28T13:37:47.051Z,95550
2023-05-28T13:38:56.716Z,95552
2023-05-28T13:40:05.376Z,95553
2023-05-28T13:41:13.999Z,95551
2023-05-28T13:42:21.636Z,95554
2023-05-28T13:43:30.730Z,95553
2023-05-28T13:44:40.400Z,95555
2023-05-28T13:45:49.051Z,95553
2023-05-28T13:46:58.704Z,95553
2023-05-28T13:48:07.392Z,95548
2023-05-28T13:49:16.016Z,95549
2023-05-28T13:50:24.695Z,95544
2023-05-28T13:51:34.381Z,95542
2023-05-28T13:52:43.022Z,95546
2023-05-28T13:53:52.669Z,95549
2023-05-28T13:55:00.306Z,95551
2023-05-28T13:56:08.960Z,95547
2023-05-28T13:57:17.673Z,95546
2023-05-28T13:58:26.337Z,95550
2023-05-28T13:59:36.665Z,95553
2023-05-28T14:00:45.357Z,95550
2023-05-28T14:01:54.002Z,95545
2023-05-28T14:03:03.983Z,95547
2023-05-28T14:04:12.597Z,95542
2023-05-28T14:05:22.235Z,95541
2023-05-28T14:06:31.913Z,95538
2023-05-28T14:07:40.544Z,95542
2023-05-28T14:08:50.210Z,95536
2023-05-28T14:09:58.894Z,95539
2023-05-28T14:11:07.559Z,95534
2023-05-28T14:12:22.201Z,95529
2023-05-28T14:13:26.858Z,95540
2023-05-28T14:14:35.557Z,95538
2023-05-28T14:15:43.217Z,95529
2023-05-28T14:16:51.885Z,95530
2023-05-28T14:18:01.561Z,95536
2023-05-28T14:19:10.219Z,95538
2023-05-28T14:20:18.944Z,95529
2023-05-28T14:21:28.543Z,95536
2023-05-28T14:22:37.221Z,95531
2023-05-28T14:23:45.838Z,95529
2023-05-28T14:24:55.535Z,95530
2023-05-28T14:26:05.176Z,95531
2023-05-28T14:27:14.838Z,95526
2023-05-28T14:28:23.465Z,95529
2023-05-28T14:29:32.165Z,95525
2023-05-28T14:30:41.799Z,95528
2023-05-28T14:31:49.457Z,95532
2023-05-28T14:32:58.221Z,95526
2023-05-28T14:34:06.868Z,95527
2023-05-28T14:35:15.519Z,95528
2023-05-28T14:36:25.152Z,95527
2023-05-28T14:37:33.809Z,95529
2023-05-28T14:38:43.479Z,95526
2023-05-28T14:39:53.174Z,95533
2023-05-28T14:41:00.820Z,95523
2023-05-28T14:42:10.462Z,95527
2023-05-28T14:43:19.115Z,95530
2023-05-28T14:44:27.768Z,95525
2023-05-28T14:45:36.476Z,95531
2023-05-28T14:46:45.164Z,95530
2023-05-28T14:47:54.973Z,95525
2023-05-28T14:49:02.442Z,95527